Time;durP1;ratioP1;P1;durP2;ratioP2;P2;SDS_P1;SDS_P2;PMS_P1;PMS_P2;Temp;Humidity;BMP_temperature;BMP_pressure;BME280_temperature;BME280_humidity;BME280_pressure;Samples;Min_cycle;Max_cycle;Signal;HPM_P1;HPM_P2
2022/08/19 00:00:15;;;;;;;7.78;6.47;;;15.90;99.90;;;;;;5070312;28;20039;-30
2022/08/19 00:02:41;;;;;;;9.30;6.97;;;15.90;99.90;;;;;;5053197;28;20087;-31
2022/08/19 00:05:08;;;;;;;9.45;7.32;;;15.90;99.90;;;;;;5065197;28;20071;-29
2022/08/19 00:07:34;;;;;;;8.70;7.80;;;15.80;99.90;;;;;;5050740;28;20043;-33
2022/08/19 00:10:00;;;;;;;8.27;7.47;;;15.90;99.90;;;;;;5066903;28;20028;-29
2022/08/19 00:12:26;;;;;;;7.63;6.90;;;15.90;99.90;;;;;;5045204;28;20048;-30
2022/08/19 00:14:53;;;;;;;9.07;8.18;;;15.80;99.90;;;;;;5051379;28;20094;-31
2022/08/19 00:17:20;;;;;;;8.55;7.40;;;15.80;99.90;;;;;;5064641;28;20066;-31
2022/08/19 00:19:46;;;;;;;9.23;7.88;;;15.80;99.90;;;;;;5053204;28;20196;-31
2022/08/19 00:22:11;;;;;;;9.50;7.90;;;15.70;99.90;;;;;;5051385;28;20102;-30
2022/08/19 00:24:38;;;;;;;9.75;8.73;;;15.80;99.90;;;;;;5051048;28;20068;-29
2022/08/19 00:27:05;;;;;;;9.48;8.52;;;15.80;99.90;;;;;;5064745;28;20040;-30
2022/08/19 00:29:31;;;;;;;10.23;9.15;;;15.70;99.90;;;;;;5068796;28;20127;-29
2022/08/19 00:31:58;;;;;;;9.35;8.35;;;15.70;99.90;;;;;;5065728;28;20460;-29
2022/08/19 00:34:27;;;;;;;10.00;9.00;;;15.70;99.90;;;;;;5057653;28;20124;-29
2022/08/19 00:36:54;;;;;;;10.40;9.05;;;15.60;99.90;;;;;;5051594;28;20042;-30
2022/08/19 00:39:20;;;;;;;9.57;8.57;;;15.60;99.90;;;;;;5055568;28;20036;-28
2022/08/19 00:41:48;;;;;;;11.10;9.45;;;15.60;99.90;;;;;;5053449;28;20045;-30
2022/08/19 00:44:20;;;;;;;10.40;9.32;;;15.60;99.90;;;;;;5052654;28;20553;-29
2022/08/19 00:46:49;;;;;;;11.63;9.68;;;15.60;99.90;;;;;;5068916;28;20044;-29
2022/08/19 00:49:20;;;;;;;10.60;9.50;;;15.60;99.90;;;;;;5069992;28;20033;-29
2022/08/19 00:51:50;;;;;;;13.73;8.82;;;15.60;99.90;;;;;;5052773;28;20127;-29
2022/08/19 00:54:16;;;;;;;10.25;9.05;;;15.50;99.90;;;;;;5068862;28;20040;-30
2022/08/19 00:56:43;;;;;;;10.52;9.52;;;15.50;99.90;;;;;;5063372;28;20079;-28
2022/08/19 00:59:09;;;;;;;10.30;9.30;;;15.50;99.90;;;;;;5066216;28;20553;-29
2022/08/19 01:01:41;;;;;;;10.73;9.63;;;15.50;99.90;;;;;;5055529;28;20047;-29
2022/08/19 01:04:07;;;;;;;12.82;10.65;;;15.50;99.90;;;;;;5069710;28;20032;-29
2022/08/19 01:06:38;;;;;;;12.57;9.75;;;15.40;99.90;;;;;;5069763;28;20089;-29
2022/08/19 01:09:04;;;;;;;11.27;9.27;;;15.40;99.90;;;;;;5067375;28;20517;-31
2022/08/19 01:11:35;;;;;;;11.90;10.73;;;15.40;99.90;;;;;;5054591;28;20041;-29
2022/08/19 01:14:01;;;;;;;10.75;9.65;;;15.40;99.90;;;;;;5052722;28;20496;-30
2022/08/19 01:16:29;;;;;;;10.18;9.13;;;15.30;99.90;;;;;;5051874;28;20049;-29
2022/08/19 01:18:56;;;;;;;10.75;9.63;;;15.30;99.90;;;;;;5056303;28;20043;-30
2022/08/19 01:21:37;;;;;;;11.10;9.95;;;15.30;99.90;;;;;;5068568;28;20102;-30
2022/08/19 01:24:03;;;;;;;11.10;9.77;;;15.30;99.90;;;;;;5064055;28;20510;-30
2022/08/19 01:26:29;;;;;;;12.10;10.13;;;15.30;99.90;;;;;;5069582;28;20076;-29
2022/08/19 01:28:57;;;;;;;12.32;10.88;;;15.30;99.90;;;;;;5065423;28;20110;-29
2022/08/19 01:31:29;;;;;;;12.23;9.80;;;15.30;99.90;;;;;;5063355;28;20041;-29
2022/08/19 01:33:57;;;;;;;12.90;10.77;;;15.20;99.90;;;;;;5067476;28;20048;-30
2022/08/19 01:36:28;;;;;;;11.40;10.13;;;15.30;99.90;;;;;;5048777;28;20518;-30
2022/08/19 01:38:55;;;;;;;11.30;10.15;;;15.30;99.90;;;;;;5068837;28;20567;-30
2022/08/19 01:41:23;;;;;;;12.18;10.55;;;15.20;99.90;;;;;;5056893;28;20050;-29
2022/08/19 01:43:51;;;;;;;12.05;9.90;;;15.20;99.90;;;;;;5062562;28;20099;-30
2022/08/19 01:46:18;;;;;;;12.90;9.73;;;15.20;99.90;;;;;;5067219;28;20079;-30
2022/08/19 01:48:45;;;;;;;12.38;10.60;;;15.20;99.90;;;;;;5065923;28;20044;-30
2022/08/19 01:51:12;;;;;;;13.63;10.70;;;15.10;99.90;;;;;;5049357;28;20074;-29
2022/08/19 01:53:39;;;;;;;11.95;10.73;;;15.10;99.90;;;;;;5055229;28;20036;-28
2022/08/19 01:56:05;;;;;;;11.27;10.07;;;15.10;99.90;;;;;;5068852;28;20029;-29
2022/08/19 01:58:39;;;;;;;12.75;10.07;;;15.10;99.90;;;;;;5064579;28;20033;-29
2022/08/19 02:01:06;;;;;;;12.43;10.25;;;15.10;99.90;;;;;;5049783;28;20063;-28
2022/08/19 02:03:32;;;;;;;11.00;9.88;;;15.10;99.90;;;;;;5048297;28;20124;-30
2022/08/19 02:05:59;;;;;;;13.48;10.45;;;15.00;99.90;;;;;;5068283;28;20440;-29
2022/08/19 02:08:30;;;;;;;11.32;10.15;;;15.00;99.90;;;;;;5067375;28;20032;-29
2022/08/19 02:10:56;;;;;;;12.60;10.93;;;15.00;99.90;;;;;;5059398;28;20047;-30
2022/08/19 02:13:23;;;;;;;14.35;10.82;;;15.00;99.90;;;;;;5061559;28;20059;-31
2022/08/19 02:15:49;;;;;;;11.10;10.00;;;15.00;99.90;;;;;;5068400;28;20115;-30
2022/08/19 02:18:14;;;;;;;12.80;10.57;;;15.00;99.90;;;;;;5065578;28;20537;-31
2022/08/19 02:20:42;;;;;;;11.80;9.82;;;15.00;99.90;;;;;;5066642;28;20025;-29
2022/08/19 02:23:09;;;;;;;12.52;9.95;;;14.90;99.90;;;;;;5068851;28;20405;-29
2022/08/19 02:25:36;;;;;;;13.48;10.82;;;14.90;99.90;;;;;;5068384;28;20041;-28
2022/08/19 02:28:02;;;;;;;13.65;10.95;;;14.90;99.90;;;;;;5051970;28;20033;-29
2022/08/19 02:30:28;;;;;;;11.77;10.02;;;14.90;99.90;;;;;;5048601;28;20036;-30
2022/08/19 02:32:54;;;;;;;12.75;10.77;;;14.80;99.90;;;;;;5068291;28;20127;-30
2022/08/19 02:35:20;;;;;;;13.38;11.65;;;14.90;99.90;;;;;;5047764;28;20112;-29
2022/08/19 02:40:34;;;;;;;14.57;12.00;;;14.90;99.90;;;;;;5069721;28;20123;-29
2022/08/19 02:43:07;;;;;;;12.98;10.63;;;14.80;99.90;;;;;;5048394;28;20482;-29
2022/08/19 02:45:34;;;;;;;11.80;10.60;;;14.80;99.90;;;;;;5052205;28;20524;-30
2022/08/19 02:48:01;;;;;;;13.30;11.43;;;14.80;99.90;;;;;;5051803;28;20067;-29
2022/08/19 02:50:27;;;;;;;13.50;11.13;;;14.80;99.90;;;;;;5051842;28;20072;-32
2022/08/19 02:52:52;;;;;;;11.50;9.50;;;14.80;99.90;;;;;;5051698;28;20079;-29
2022/08/19 02:55:18;;;;;;;11.40;9.50;;;14.70;99.90;;;;;;5068446;28;20470;-29
2022/08/19 02:57:44;;;;;;;14.23;11.10;;;14.70;99.90;;;;;;5051676;28;20048;-29
2022/08/19 03:00:13;;;;;;;14.20;11.23;;;14.70;99.90;;;;;;5064580;28;20040;-30
2022/08/19 03:02:39;;;;;;;11.98;10.25;;;14.70;99.90;;;;;;5057284;28;20131;-29
2022/08/19 03:05:07;;;;;;;14.25;11.85;;;14.70;99.90;;;;;;5051650;28;20024;-30
2022/08/19 03:07:32;;;;;;;14.35;10.38;;;14.70;99.90;;;;;;5067919;28;20079;-28
2022/08/19 03:09:58;;;;;;;12.90;10.20;;;14.70;99.90;;;;;;5043570;28;20064;-29
2022/08/19 03:12:24;;;;;;;14.15;11.38;;;14.70;99.90;;;;;;5068281;28;20127;-30
2022/08/19 03:14:51;;;;;;;13.05;10.90;;;14.70;99.90;;;;;;5055180;28;20127;-31
2022/08/19 03:17:17;;;;;;;13.38;10.70;;;14.60;99.90;;;;;;5055592;28;20136;-28
2022/08/19 03:19:43;;;;;;;14.02;12.27;;;14.60;99.90;;;;;;5071439;28;20506;-31
2022/08/19 03:22:08;;;;;;;14.63;11.55;;;14.60;99.90;;;;;;5055075;28;20032;-31
2022/08/19 03:24:34;;;;;;;12.63;10.63;;;14.60;99.90;;;;;;5055182;28;20119;-32
2022/08/19 03:27:01;;;;;;;12.38;10.63;;;14.50;99.90;;;;;;5048853;28;20024;-30
2022/08/19 03:29:28;;;;;;;13.05;10.40;;;14.50;99.90;;;;;;5055623;28;20389;-30
2022/08/19 03:31:54;;;;;;;15.77;11.68;;;14.50;99.90;;;;;;5071176;28;20032;-29
2022/08/19 03:34:29;;;;;;;12.95;10.45;;;14.50;99.90;;;;;;5072790;28;20040;-29
2022/08/19 03:37:02;;;;;;;10.40;8.93;;;14.50;99.90;;;;;;5071344;28;20037;-30
2022/08/19 03:39:28;;;;;;;13.85;10.63;;;14.50;99.90;;;;;;5071229;28;20067;-29
2022/08/19 03:41:59;;;;;;;12.80;9.40;;;14.40;99.90;;;;;;5054508;28;20133;-30
2022/08/19 03:44:25;;;;;;;11.60;10.07;;;14.40;99.90;;;;;;5052972;28;20041;-28
2022/08/19 03:46:55;;;;;;;13.30;10.65;;;14.40;99.90;;;;;;5064371;28;20505;-28
2022/08/19 03:49:23;;;;;;;14.88;10.40;;;14.40;99.90;;;;;;5050757;28;20125;-29
2022/08/19 03:51:50;;;;;;;13.35;10.02;;;14.30;99.90;;;;;;5059972;28;20044;-29
2022/08/19 03:54:19;;;;;;;11.98;9.43;;;14.30;99.90;;;;;;5054950;28;20306;-28
2022/08/19 03:56:48;;;;;;;11.18;9.60;;;14.30;99.90;;;;;;5054624;28;20048;-28
2022/08/19 03:59:25;;;;;;;12.40;9.93;;;14.30;99.90;;;;;;5049698;28;20032;-29
2022/08/19 04:01:52;;;;;;;12.40;10.10;;;14.20;99.90;;;;;;5070114;28;20405;-29
2022/08/19 04:04:18;;;;;;;12.25;9.93;;;14.20;99.90;;;;;;5054842;28;20379;-30
2022/08/19 04:06:44;;;;;;;13.40;9.65;;;14.20;99.90;;;;;;5062797;28;20114;-29
2022/08/19 04:09:11;;;;;;;10.05;8.98;;;14.20;99.90;;;;;;5054306;28;20393;-30
2022/08/19 04:11:41;;;;;;;13.13;10.13;;;14.20;99.90;;;;;;5054425;28;20044;-28
2022/08/19 04:14:08;;;;;;;11.07;9.15;;;14.20;99.90;;;;;;5049777;28;20036;-28
2022/08/19 04:16:34;;;;;;;10.40;9.30;;;14.20;99.90;;;;;;5048279;28;20068;-29
2022/08/19 04:19:02;;;;;;;12.63;10.13;;;14.10;99.90;;;;;;5065270;28;20042;-29
2022/08/19 04:21:29;;;;;;;10.98;9.55;;;14.10;99.90;;;;;;5052935;28;20037;-31
2022/08/19 04:23:56;;;;;;;11.77;9.63;;;14.10;99.90;;;;;;5051506;28;20037;-31
2022/08/19 04:26:31;;;;;;;11.43;9.88;;;14.10;99.90;;;;;;5050275;28;21191;-29
2022/08/19 04:28:58;;;;;;;11.05;9.38;;;14.10;99.90;;;;;;5035412;28;20540;-30
2022/08/19 04:31:27;;;;;;;14.93;11.15;;;14.10;99.90;;;;;;5049996;28;20066;-29
2022/08/19 04:33:56;;;;;;;14.68;10.30;;;14.10;99.90;;;;;;5063441;28;20079;-29
2022/08/19 04:36:25;;;;;;;12.23;9.48;;;14.10;99.90;;;;;;5053955;28;20418;-30
2022/08/19 04:38:55;;;;;;;12.15;10.00;;;14.10;99.90;;;;;;5054055;28;20040;-30
2022/08/19 04:44:06;;;;;;;13.40;9.95;;;14.10;99.90;;;;;;5071410;28;20048;-29
2022/08/19 04:46:33;;;;;;;14.80;10.30;;;14.10;99.90;;;;;;5053486;28;20112;-29
2022/08/19 04:48:59;;;;;;;26.98;13.32;;;14.10;99.90;;;;;;5045963;28;20029;-29
2022/08/19 04:51:25;;;;;;;18.25;12.60;;;14.10;99.90;;;;;;5050060;28;20078;-28
2022/08/19 04:53:52;;;;;;;14.70;10.93;;;14.10;99.90;;;;;;5052692;28;20449;-30
2022/08/19 04:56:22;;;;;;;14.65;11.38;;;14.00;99.90;;;;;;5053280;28;20115;-31
2022/08/19 04:58:50;;;;;;;13.50;10.60;;;14.10;99.90;;;;;;5061556;28;20094;-30
2022/08/19 05:01:23;;;;;;;15.93;11.38;;;14.10;99.90;;;;;;5047181;28;20517;-29
2022/08/19 05:03:49;;;;;;;16.70;12.52;;;14.10;99.90;;;;;;5067275;28;20125;-30
2022/08/19 05:06:17;;;;;;;15.30;11.88;;;14.10;99.90;;;;;;5067013;28;20382;-30
2022/08/19 05:08:44;;;;;;;15.43;12.30;;;14.10;99.90;;;;;;5053280;28;20549;-30
2022/08/19 05:11:30;;;;;;;15.63;12.85;;;14.10;99.90;;;;;;5068669;28;20162;-29
2022/08/19 05:13:57;;;;;;;15.35;11.27;;;14.10;99.90;;;;;;5048970;28;20423;-29
2022/08/19 05:16:24;;;;;;;13.65;10.93;;;14.10;99.90;;;;;;5053899;28;20036;-31
2022/08/19 05:24:22;;;;;;;13.80;10.52;;;14.10;99.90;;;;;;5067915;28;20032;-29
2022/08/19 05:26:49;;;;;;;15.52;9.90;;;14.20;99.90;;;;;;5058629;28;20044;-29
2022/08/19 05:29:18;;;;;;;12.38;10.48;;;14.20;99.90;;;;;;5065278;28;20371;-30
2022/08/19 05:31:45;;;;;;;12.65;9.57;;;14.20;99.90;;;;;;5066118;28;20117;-28
2022/08/19 05:34:11;;;;;;;12.77;9.73;;;14.20;99.90;;;;;;5051470;28;20046;-28
2022/08/19 05:36:40;;;;;;;12.85;10.15;;;14.30;99.90;;;;;;5054230;28;20131;-31
2022/08/19 05:39:15;;;;;;;13.98;11.02;;;14.30;99.90;;;;;;5052017;28;20101;-29
2022/08/19 05:41:52;;;;;;;13.93;11.90;;;14.30;99.90;;;;;;5067361;28;20052;-29
2022/08/19 05:44:21;;;;;;;15.68;11.80;;;14.40;99.90;;;;;;5065824;28;20060;-28
2022/08/19 05:46:47;;;;;;;19.80;13.95;;;14.40;99.90;;;;;;5050441;28;20047;-28
2022/08/19 05:49:15;;;;;;;17.25;12.43;;;14.50;99.90;;;;;;5064668;28;20091;-28
2022/08/19 05:51:42;;;;;;;17.27;13.93;;;14.50;99.90;;;;;;5051460;28;20123;-31
2022/08/19 05:54:08;;;;;;;22.25;16.05;;;14.60;99.90;;;;;;5066849;28;20040;-29
2022/08/19 05:56:37;;;;;;;21.35;14.93;;;14.70;99.90;;;;;;5050616;28;20040;-30
2022/08/19 05:59:08;;;;;;;16.25;13.82;;;14.80;99.90;;;;;;5068905;28;20097;-30
2022/08/19 06:01:35;;;;;;;21.20;16.27;;;14.90;99.90;;;;;;5068613;28;20048;-31
2022/08/19 06:04:02;;;;;;;22.75;16.80;;;15.00;99.90;;;;;;5043689;28;20394;-32
2022/08/19 06:06:28;;;;;;;26.42;17.70;;;15.10;99.90;;;;;;5051694;28;20443;-32
2022/08/19 06:08:54;;;;;;;24.05;17.98;;;15.30;99.90;;;;;;5066882;28;20123;-31
2022/08/19 06:11:32;;;;;;;23.40;15.93;;;15.40;99.90;;;;;;5065649;28;20119;-31
2022/08/19 06:14:07;;;;;;;21.25;15.32;;;15.50;99.90;;;;;;5065658;28;20116;-30
2022/08/19 06:16:34;;;;;;;19.30;15.70;;;15.50;99.90;;;;;;5048454;28;20051;-31
2022/08/19 06:19:04;;;;;;;20.92;15.05;;;15.60;99.90;;;;;;5066884;28;20051;-29
2022/08/19 06:21:30;;;;;;;18.83;14.77;;;15.70;99.90;;;;;;5051536;28;20498;-30
2022/08/19 06:23:57;;;;;;;21.35;16.48;;;15.80;99.90;;;;;;5063512;28;20436;-29
2022/08/19 06:26:24;;;;;;;18.65;15.85;;;15.90;99.90;;;;;;5052599;28;20572;-30
2022/08/19 06:28:50;;;;;;;20.13;16.45;;;16.00;99.90;;;;;;5065751;28;20444;-30
2022/08/19 06:31:27;;;;;;;18.08;14.82;;;16.10;99.90;;;;;;5059176;28;20376;-29
2022/08/19 06:33:53;;;;;;;22.13;16.30;;;16.20;99.90;;;;;;5047717;28;20028;-30
2022/08/19 06:36:29;;;;;;;24.45;17.92;;;16.30;99.90;;;;;;5066596;28;20382;-31
2022/08/19 06:38:57;;;;;;;21.08;17.20;;;16.40;99.90;;;;;;5051685;28;20029;-30
2022/08/19 06:41:24;;;;;;;27.17;19.70;;;16.50;99.90;;;;;;5057100;28;20099;-32
2022/08/19 06:43:50;;;;;;;25.95;20.27;;;16.60;99.90;;;;;;5049082;28;20033;-31
2022/08/19 06:46:18;;;;;;;29.15;20.55;;;16.70;99.90;;;;;;5048133;28;20036;-29
2022/08/19 06:48:44;;;;;;;24.38;19.27;;;16.80;99.90;;;;;;5068799;28;20040;-31
2022/08/19 06:51:10;;;;;;;23.33;18.40;;;16.90;99.90;;;;;;5051658;28;20055;-31
2022/08/19 06:53:36;;;;;;;27.42;20.40;;;17.00;99.90;;;;;;5052301;28;20036;-31
2022/08/19 06:56:02;;;;;;;23.27;20.30;;;17.10;99.90;;;;;;5038434;28;20444;-30
2022/08/19 06:58:31;;;;;;;27.80;21.17;;;17.20;99.90;;;;;;5071548;28;20029;-30
2022/08/19 07:01:04;;;;;;;29.33;21.13;;;17.30;99.90;;;;;;5059285;28;20218;-30
2022/08/19 07:03:32;;;;;;;24.63;20.38;;;17.30;99.90;;;;;;5073069;28;20037;-31
2022/08/19 07:06:07;;;;;;;26.77;20.52;;;17.40;99.90;;;;;;5068609;28;20032;-31
2022/08/19 07:08:36;;;;;;;21.85;18.35;;;17.60;99.90;;;;;;5046151;28;20049;-32
2022/08/19 07:11:02;;;;;;;24.60;20.00;;;17.70;99.90;;;;;;5071020;28;20039;-29
2022/08/19 07:13:28;;;;;;;23.58;20.15;;;17.70;99.90;;;;;;5068924;28;20043;-28
2022/08/19 07:15:54;;;;;;;21.65;19.35;;;17.80;99.90;;;;;;5070676;28;20044;-31
2022/08/19 07:18:21;;;;;;;24.73;20.05;;;17.90;99.90;;;;;;5070127;28;20043;-32
2022/08/19 07:20:47;;;;;;;26.13;19.35;;;18.00;99.90;;;;;;5054915;28;20036;-32
2022/08/19 07:23:13;;;;;;;24.77;20.40;;;18.10;99.90;;;;;;5052811;28;20441;-31
2022/08/19 07:25:39;;;;;;;24.13;19.40;;;18.20;99.90;;;;;;5055143;28;20048;-29
2022/08/19 07:28:09;;;;;;;21.20;18.85;;;18.30;99.90;;;;;;5047191;28;20481;-30
2022/08/19 07:30:40;;;;;;;26.30;20.23;;;18.40;99.90;;;;;;5053805;28;20036;-33
2022/08/19 07:33:06;;;;;;;20.48;17.88;;;18.60;99.90;;;;;;5062414;28;20044;-29
2022/08/19 07:35:32;;;;;;;21.38;18.42;;;18.70;99.90;;;;;;5070650;28;20418;-32
2022/08/19 07:38:02;;;;;;;21.35;17.95;;;18.90;99.90;;;;;;5071522;28;20071;-31
2022/08/19 07:40:29;;;;;;;21.85;18.75;;;19.20;99.90;;;;;;5055146;28;20040;-29
2022/08/19 07:42:54;;;;;;;20.02;17.83;;;19.40;99.90;;;;;;5032150;28;20102;-31
2022/08/19 07:45:20;;;;;;;19.45;17.42;;;19.60;99.90;;;;;;5055240;28;20127;-29
2022/08/19 07:47:46;;;;;;;22.75;19.75;;;19.80;99.90;;;;;;5055049;28;20047;-30
2022/08/19 07:50:12;;;;;;;20.08;17.98;;;20.10;99.90;;;;;;5059372;28;20047;-31
2022/08/19 07:52:39;;;;;;;21.13;18.73;;;20.30;99.90;;;;;;5071276;28;20426;-29
2022/08/19 07:55:06;;;;;;;19.85;17.75;;;20.60;99.90;;;;;;5054905;28;20044;-31
2022/08/19 07:57:32;;;;;;;20.05;17.80;;;20.80;99.90;;;;;;5054487;28;20036;-30
2022/08/19 07:59:58;;;;;;;19.15;17.15;;;21.00;99.90;;;;;;5053737;28;20033;-31
2022/08/19 08:02:24;;;;;;;18.83;16.92;;;21.10;99.90;;;;;;5055294;28;20123;-31
2022/08/19 08:10:19;;;;;;;20.58;16.55;;;21.70;99.90;;;;;;5072488;28;20040;-31
2022/08/19 08:12:44;;;;;;;18.08;16.23;;;22.00;99.90;;;;;;5052770;28;20048;-31
2022/08/19 08:15:16;;;;;;;17.85;15.95;;;22.20;99.90;;;;;;5049601;28;20025;-33
2022/08/19 08:17:42;;;;;;;17.65;15.60;;;22.30;99.90;;;;;;5056040;28;20040;-32
2022/08/19 08:20:09;;;;;;;17.40;15.52;;;22.50;99.90;;;;;;5041489;28;20033;-30
2022/08/19 08:25:22;;;;;;;15.30;13.70;;;22.80;99.90;;;;;;5071981;28;20506;-30
2022/08/19 08:27:49;;;;;;;14.82;13.43;;;23.00;99.90;;;;;;5070864;28;20048;-32
2022/08/19 08:30:22;;;;;;;15.10;13.65;;;23.20;99.90;;;;;;5054334;28;20037;-33
2022/08/19 08:32:48;;;;;;;14.83;13.33;;;23.50;99.90;;;;;;5069199;28;20111;-30
2022/08/19 08:35:18;;;;;;;13.90;12.60;;;23.60;99.90;;;;;;5037228;28;20044;-31
2022/08/19 08:37:45;;;;;;;15.50;14.10;;;23.70;99.90;;;;;;5052588;28;20040;-30
2022/08/19 08:40:23;;;;;;;14.63;13.00;;;23.90;99.90;;;;;;5033983;28;20093;-31
2022/08/19 08:43:00;;;;;;;15.73;13.70;;;24.10;99.90;;;;;;5068324;28;20051;-35
2022/08/19 08:45:28;;;;;;;13.88;12.57;;;24.40;99.90;;;;;;5051498;28;20068;-30
2022/08/19 08:48:01;;;;;;;14.95;13.43;;;24.60;99.90;;;;;;5071284;28;20040;-31
2022/08/19 08:50:30;;;;;;;;;;;24.80;99.90;;;;;;5068159;28;20051;-32
2022/08/19 08:52:57;;;;;;;14.48;13.07;;;24.80;99.90;;;;;;5069934;28;19924;-32
2022/08/19 08:55:26;;;;;;;13.80;12.48;;;25.10;99.90;;;;;;5064336;28;20109;-33
2022/08/19 08:58:05;;;;;;;14.70;12.68;;;25.20;99.90;;;;;;5052869;28;20037;-29
2022/08/19 09:00:37;;;;;;;13.63;12.23;;;25.50;99.90;;;;;;5057296;28;20033;-31
2022/08/19 09:03:13;;;;;;;14.07;12.77;;;25.60;99.90;;;;;;5047022;28;20044;-32
2022/08/19 09:05:50;;;;;;;14.68;12.57;;;25.70;99.90;;;;;;5067619;28;20040;-30
2022/08/19 09:08:57;;;;;;;12.63;11.38;;;25.80;99.90;;;;;;5053260;28;20036;-32
2022/08/19 09:11:56;;;;;;;14.48;11.93;;;25.90;99.90;;;;;;5024139;28;20106;-31
2022/08/19 09:14:28;;;;;;;11.68;10.60;;;26.30;99.90;;;;;;5067746;28;20060;-31
2022/08/19 09:16:53;;;;;;;13.23;11.93;;;26.40;99.90;;;;;;5061282;28;20086;-31
2022/08/19 09:19:19;;;;;;;12.80;11.65;;;26.60;99.90;;;;;;5069770;28;20431;-32
2022/08/19 09:21:45;;;;;;;13.68;12.27;;;26.60;99.90;;;;;;5053166;28;20490;-31
2022/08/19 09:24:12;;;;;;;12.65;11.55;;;26.70;99.90;;;;;;5068633;28;20558;-31
2022/08/19 09:26:38;;;;;;;12.32;11.32;;;26.90;99.90;;;;;;5050534;28;20068;-30
2022/08/19 09:29:05;;;;;;;12.90;11.80;;;27.00;99.90;;;;;;5052909;28;20075;-32
2022/08/19 09:31:32;;;;;;;12.68;11.38;;;27.10;99.90;;;;;;5066844;28;20040;-33
2022/08/19 09:33:59;;;;;;;14.55;13.20;;;27.10;99.90;;;;;;5070600;28;20441;-31
2022/08/19 09:36:28;;;;;;;14.38;12.98;;;27.10;99.90;;;;;;5053300;28;20101;-31
2022/08/19 09:38:56;;;;;;;15.63;13.27;;;27.30;99.90;;;;;;5052911;28;20383;-31
2022/08/19 09:41:23;;;;;;;14.10;12.80;;;27.50;99.90;;;;;;5050943;28;20115;-29
2022/08/19 09:43:52;;;;;;;12.98;11.88;;;27.60;99.90;;;;;;5055078;28;20041;-31
2022/08/19 09:46:20;;;;;;;13.68;12.50;;;27.80;99.90;;;;;;5049021;28;20040;-30
2022/08/19 09:48:48;;;;;;;11.77;10.68;;;28.00;99.90;;;;;;5052882;28;20071;-32
2022/08/19 09:51:21;;;;;;;12.88;11.77;;;28.30;99.90;;;;;;5048472;28;20037;-35
2022/08/19 09:53:53;;;;;;;13.02;11.85;;;28.50;99.90;;;;;;5051222;28;20040;-33
2022/08/19 09:56:20;;;;;;;13.65;12.45;;;28.50;99.90;;;;;;5053247;28;20066;-33
2022/08/19 09:58:46;;;;;;;12.50;11.50;;;28.70;99.90;;;;;;5067206;28;20124;-32
2022/08/19 10:01:19;;;;;;;12.50;11.45;;;28.80;99.30;;;;;;5066451;28;20052;-36
2022/08/19 10:03:49;;;;;;;11.82;10.82;;;28.90;90.20;;;;;;5041182;28;20120;-30
2022/08/19 10:06:16;;;;;;;11.10;10.20;;;28.80;93.80;;;;;;5066573;28;20033;-31
2022/08/19 10:08:42;;;;;;;11.52;10.50;;;29.00;94.30;;;;;;5049668;28;20382;-31
2022/08/19 10:11:09;;;;;;;10.38;9.57;;;29.30;95.20;;;;;;5049759;28;20033;-34
2022/08/19 10:13:36;;;;;;;11.55;10.45;;;29.50;95.30;;;;;;5071182;28;20046;-33
2022/08/19 10:16:08;;;;;;;12.82;11.63;;;29.70;92.90;;;;;;5052753;28;20462;-31
2022/08/19 10:18:35;;;;;;;13.18;12.07;;;29.80;83.00;;;;;;5069980;28;20110;-33
2022/08/19 10:21:13;;;;;;;12.65;11.48;;;30.00;86.70;;;;;;5052139;28;20036;-33
2022/08/19 10:23:44;;;;;;;10.88;9.95;;;30.00;73.10;;;;;;5066183;28;20040;-34
2022/08/19 10:26:13;;;;;;;11.13;10.00;;;30.00;81.60;;;;;;5069874;28;20039;-33
2022/08/19 10:28:39;;;;;;;10.60;9.57;;;30.00;81.50;;;;;;5066883;28;20060;-33
2022/08/19 10:31:07;;;;;;;10.77;9.77;;;30.10;80.40;;;;;;5059407;28;20625;-34
2022/08/19 10:33:34;;;;;;;9.30;8.57;;;30.30;80.00;;;;;;5056898;28;20067;-32
2022/08/19 10:36:09;;;;;;;8.48;7.68;;;30.40;72.30;;;;;;5070372;28;20048;-31
2022/08/19 10:38:35;;;;;;;8.10;7.40;;;30.20;60.00;;;;;;5066735;28;20043;-31
2022/08/19 10:41:10;;;;;;;7.70;7.00;;;30.00;67.00;;;;;;5069061;28;20036;-34
2022/08/19 10:43:38;;;;;;;8.30;7.70;;;30.00;67.50;;;;;;5060781;28;20502;-33
2022/08/19 10:46:05;;;;;;;8.93;8.25;;;30.30;73.20;;;;;;5036250;28;20032;-31
2022/08/19 10:48:31;;;;;;;9.32;8.43;;;30.40;65.60;;;;;;5068695;28;20475;-33
2022/08/19 10:53:42;;;;;;;9.93;9.02;;;30.70;65.20;;;;;;5070386;28;20390;-34
2022/08/19 10:58:52;;;;;;;9.57;8.75;;;31.30;61.20;;;;;;5068618;28;20033;-31
2022/08/19 11:01:18;;;;;;;10.38;9.52;;;31.20;60.50;;;;;;5046612;28;20036;-35
2022/08/19 11:03:45;;;;;;;10.07;9.18;;;31.20;62.40;;;;;;5067209;28;20478;-30
2022/08/19 11:06:11;;;;;;;9.50;8.70;;;31.30;59.40;;;;;;5068959;28;20367;-30
2022/08/19 11:08:37;;;;;;;8.85;8.18;;;30.90;56.20;;;;;;5052053;28;20478;-33
2022/08/19 11:11:05;;;;;;;9.13;8.43;;;31.00;59.40;;;;;;5064114;28;20043;-33
2022/08/19 11:13:37;;;;;;;8.32;7.72;;;31.30;57.70;;;;;;5052031;28;20040;-32
2022/08/19 11:16:09;;;;;;;8.43;7.72;;;31.40;57.60;;;;;;5064917;28;20052;-31
2022/08/19 11:18:38;;;;;;;8.23;7.63;;;31.40;58.60;;;;;;5051270;28;20039;-32
2022/08/19 11:21:24;;;;;;;8.38;7.78;;;31.40;56.70;;;;;;5063651;28;20050;-33
2022/08/19 11:23:54;;;;;;;9.23;8.52;;;31.10;55.50;;;;;;5051547;28;20096;-31
2022/08/19 11:26:21;;;;;;;8.82;8.10;;;31.40;55.60;;;;;;5059286;28;20432;-32
2022/08/19 11:28:48;;;;;;;8.52;7.78;;;31.70;55.70;;;;;;5044942;28;20039;-35
2022/08/19 11:31:17;;;;;;;7.75;7.15;;;31.80;55.40;;;;;;5067946;28;20036;-33
2022/08/19 11:33:45;;;;;;;9.80;9.00;;;31.70;54.80;;;;;;5056571;28;20490;-33
2022/08/19 11:36:12;;;;;;;7.25;6.75;;;31.50;52.80;;;;;;5071852;28;20097;-35
2022/08/19 11:38:38;;;;;;;9.60;8.70;;;31.90;54.20;;;;;;5071150;28;20101;-34
2022/08/19 11:41:07;;;;;;;10.35;9.50;;;32.10;53.30;;;;;;5055247;28;20044;-32
2022/08/19 11:43:34;;;;;;;7.30;6.70;;;32.10;51.80;;;;;;5037995;28;20045;-33
2022/08/19 11:46:07;;;;;;;9.63;8.90;;;32.40;50.80;;;;;;5063764;28;20087;-35
2022/08/19 11:48:34;;;;;;;8.07;7.30;;;32.50;51.00;;;;;;5068763;28;20185;-30
2022/08/19 11:51:08;;;;;;;9.10;8.40;;;32.80;51.80;;;;;;5070071;28;20028;-32
2022/08/19 11:53:34;;;;;;;8.10;7.50;;;32.60;50.40;;;;;;5056581;28;20044;-33
2022/08/19 11:56:00;;;;;;;8.70;6.97;;;32.30;49.80;;;;;;5070624;28;20096;-33
2022/08/19 11:58:26;;;;;;;10.60;9.70;;;31.90;51.00;;;;;;5040737;28;20509;-32
2022/08/19 12:00:52;;;;;;;8.05;7.35;;;32.00;50.90;;;;;;5053086;28;20029;-33
2022/08/19 12:03:19;;;;;;;9.60;8.90;;;32.20;52.10;;;;;;5058220;28;20178;-33
2022/08/19 12:05:46;;;;;;;9.40;8.60;;;32.10;52.00;;;;;;5051780;28;20618;-33
2022/08/19 12:08:12;;;;;;;8.40;7.70;;;32.50;52.20;;;;;;5070242;28;20097;-31
2022/08/19 12:10:39;;;;;;;9.40;8.60;;;32.50;52.60;;;;;;5051488;28;20031;-32
2022/08/19 12:13:06;;;;;;;10.23;9.30;;;32.40;52.10;;;;;;5054781;28;20528;-33
2022/08/19 12:15:36;;;;;;;10.30;9.43;;;32.50;51.90;;;;;;5070175;28;20041;-32
2022/08/19 12:18:03;;;;;;;8.93;8.02;;;32.70;51.00;;;;;;5056295;28;20068;-35
2022/08/19 12:20:28;;;;;;;9.40;8.60;;;33.10;51.00;;;;;;5070280;28;20043;-32
2022/08/19 12:22:55;;;;;;;9.77;8.95;;;33.60;50.20;;;;;;5054146;28;20040;-35
2022/08/19 12:25:21;;;;;;;8.00;7.28;;;33.80;49.40;;;;;;5070870;28;20025;-33
2022/08/19 12:27:47;;;;;;;7.22;6.63;;;33.40;47.80;;;;;;5069424;28;20047;-32
2022/08/19 12:30:14;;;;;;;5.90;5.40;;;33.50;47.70;;;;;;5071175;28;20039;-33
2022/08/19 12:32:40;;;;;;;6.70;6.10;;;34.00;47.80;;;;;;5034049;28;20036;-32
2022/08/19 12:35:08;;;;;;;6.60;6.00;;;34.30;47.10;;;;;;5069638;28;20083;-33
2022/08/19 12:37:34;;;;;;;8.02;7.05;;;34.50;46.40;;;;;;5049344;28;20040;-32
2022/08/19 12:40:00;;;;;;;7.78;7.18;;;34.50;45.10;;;;;;5067805;28;20102;-33
2022/08/19 12:42:26;;;;;;;7.97;7.28;;;34.40;45.10;;;;;;5053203;28;20115;-33
2022/08/19 12:44:52;;;;;;;7.50;6.90;;;34.50;44.80;;;;;;5053379;28;20295;-32
2022/08/19 12:47:18;;;;;;;6.20;5.68;;;34.80;45.10;;;;;;5070015;28;20032;-30
2022/08/19 12:49:45;;;;;;;7.05;5.28;;;34.70;44.30;;;;;;5052633;28;20068;-34
2022/08/19 12:52:15;;;;;;;6.65;6.18;;;34.90;43.80;;;;;;5069905;28;20509;-32
2022/08/19 12:54:41;;;;;;;6.75;6.15;;;34.90;43.00;;;;;;5054770;28;20036;-33
2022/08/19 12:57:08;;;;;;;6.70;6.10;;;34.80;43.20;;;;;;5070592;28;20089;-35
2022/08/19 12:59:36;;;;;;;5.47;4.97;;;34.40;43.10;;;;;;5065185;28;20040;-33
2022/08/19 13:02:06;;;;;;;7.63;6.85;;;33.90;42.90;;;;;;5060626;28;20501;-33